sensor_id;sensor_type;location;lat;lon;timestamp;P1;durP1;ratioP1;P2;durP2;ratioP2
15404;SDS011;7801;48.124;11.590;2023-04-21T00:00:13;3.00;;;2.80;;
15404;SDS011;7801;48.124;11.590;2023-04-21T00:02:38;2.77;;;2.67;;
15404;SDS011;7801;48.124;11.590;2023-04-21T00:05:05;3.67;;;3.47;;
15404;SDS011;7801;48.124;11.590;2023-04-21T00:07:33;2.93;;;2.77;;
15404;SDS011;7801;48.124;11.590;2023-04-21T00:09:59;4.10;;;3.90;;
15404;SDS011;7801;48.124;11.590;2023-04-21T00:12:24;3.63;;;3.43;;
15404;SDS011;7801;48.124;11.590;2023-04-21T00:14:49;4.07;;;3.73;;
15404;SDS011;7801;48.124;11.590;2023-04-21T00:17:15;4.17;;;3.87;;
15404;SDS011;7801;48.124;11.590;2023-04-21T00:19:40;3.07;;;2.87;;
15404;SDS011;7801;48.124;11.590;2023-04-21T00:22:06;3.13;;;3.03;;
15404;SDS011;7801;48.124;11.590;2023-04-21T00:24:36;4.07;;;3.77;;
15404;SDS011;7801;48.124;11.590;2023-04-21T00:27:01;3.40;;;3.23;;
15404;SDS011;7801;48.124;11.590;2023-04-21T00:29:27;3.97;;;3.23;;
15404;SDS011;7801;48.124;11.590;2023-04-21T00:31:53;3.83;;;3.63;;
15404;SDS011;7801;48.124;11.590;2023-04-21T00:34:18;5.07;;;4.63;;
15404;SDS011;7801;48.124;11.590;2023-04-21T00:36:44;5.17;;;4.67;;
15404;SDS011;7801;48.124;11.590;2023-04-21T00:39:09;4.10;;;3.73;;
15404;SDS011;7801;48.124;11.590;2023-04-21T00:41:35;4.27;;;4.07;;
15404;SDS011;7801;48.124;11.590;2023-04-21T00:46:30;3.60;;;3.40;;
15404;SDS011;7801;48.124;11.590;2023-04-21T00:48:57;4.57;;;4.17;;
15404;SDS011;7801;48.124;11.590;2023-04-21T00:51:23;3.90;;;3.70;;
15404;SDS011;7801;48.124;11.590;2023-04-21T00:53:49;4.30;;;4.00;;
15404;SDS011;7801;48.124;11.590;2023-04-21T00:56:15;3.57;;;3.37;;
15404;SDS011;7801;48.124;11.590;2023-04-21T00:58:42;4.73;;;4.23;;
15404;SDS011;7801;48.124;11.590;2023-04-21T01:01:09;3.80;;;3.50;;
15404;SDS011;7801;48.124;11.590;2023-04-21T01:03:35;4.73;;;4.50;;
15404;SDS011;7801;48.124;11.590;2023-04-21T01:06:00;3.83;;;3.63;;
15404;SDS011;7801;48.124;11.590;2023-04-21T01:08:26;4.10;;;3.90;;
15404;SDS011;7801;48.124;11.590;2023-04-21T01:10:52;4.00;;;3.73;;
15404;SDS011;7801;48.124;11.590;2023-04-21T01:13:20;4.60;;;4.33;;
15404;SDS011;7801;48.124;11.590;2023-04-21T01:15:48;4.67;;;4.37;;
15404;SDS011;7801;48.124;11.590;2023-04-21T01:18:13;5.20;;;4.77;;
15404;SDS011;7801;48.124;11.590;2023-04-21T01:20:39;4.43;;;4.03;;
15404;SDS011;7801;48.124;11.590;2023-04-21T01:23:05;8.57;;;5.57;;
15404;SDS011;7801;48.124;11.590;2023-04-21T01:25:31;5.47;;;5.00;;
15404;SDS011;7801;48.124;11.590;2023-04-21T01:27:56;3.50;;;3.30;;
15404;SDS011;7801;48.124;11.590;2023-04-21T01:30:22;10.37;;;5.20;;
15404;SDS011;7801;48.124;11.590;2023-04-21T01:32:47;3.43;;;3.33;;
15404;SDS011;7801;48.124;11.590;2023-04-21T01:35:13;6.23;;;5.33;;
15404;SDS011;7801;48.124;11.590;2023-04-21T01:37:38;4.47;;;4.07;;
15404;SDS011;7801;48.124;11.590;2023-04-21T01:40:04;4.27;;;3.97;;
15404;SDS011;7801;48.124;11.590;2023-04-21T01:42:32;4.60;;;3.80;;
15404;SDS011;7801;48.124;11.590;2023-04-21T01:44:58;3.67;;;3.47;;
15404;SDS011;7801;48.124;11.590;2023-04-21T01:47:24;4.77;;;4.37;;
15404;SDS011;7801;48.124;11.590;2023-04-21T01:49:50;4.53;;;4.23;;
15404;SDS011;7801;48.124;11.590;2023-04-21T01:52:17;4.93;;;4.63;;
15404;SDS011;7801;48.124;11.590;2023-04-21T01:54:43;3.50;;;3.30;;
15404;SDS011;7801;48.124;11.590;2023-04-21T02:00:31;3.20;;;3.10;;
15404;SDS011;7801;48.124;11.590;2023-04-21T02:02:56;4.20;;;3.93;;
15404;SDS011;7801;48.124;11.590;2023-04-21T02:05:22;4.57;;;4.27;;
15404;SDS011;7801;48.124;11.590;2023-04-21T02:07:47;4.67;;;4.37;;
15404;SDS011;7801;48.124;11.590;2023-04-21T02:10:12;4.50;;;4.20;;
15404;SDS011;7801;48.124;11.590;2023-04-21T02:12:38;6.10;;;5.70;;
15404;SDS011;7801;48.124;11.590;2023-04-21T02:15:04;4.20;;;3.93;;
15404;SDS011;7801;48.124;11.590;2023-04-21T02:17:30;3.70;;;3.50;;
15404;SDS011;7801;48.124;11.590;2023-04-21T02:19:55;4.13;;;3.83;;
15404;SDS011;7801;48.124;11.590;2023-04-21T02:22:21;4.90;;;4.60;;
15404;SDS011;7801;48.124;11.590;2023-04-21T02:24:47;5.97;;;5.47;;
15404;SDS011;7801;48.124;11.590;2023-04-21T02:27:13;4.07;;;3.70;;
15404;SDS011;7801;48.124;11.590;2023-04-21T02:29:38;5.60;;;5.13;;
15404;SDS011;7801;48.124;11.590;2023-04-21T02:32:03;4.60;;;4.20;;
15404;SDS011;7801;48.124;11.590;2023-04-21T02:34:29;4.40;;;4.10;;
15404;SDS011;7801;48.124;11.590;2023-04-21T02:36:54;4.77;;;4.50;;
15404;SDS011;7801;48.124;11.590;2023-04-21T02:39:20;4.13;;;3.80;;
15404;SDS011;7801;48.124;11.590;2023-04-21T02:41:45;4.17;;;3.87;;
15404;SDS011;7801;48.124;11.590;2023-04-21T02:44:10;3.57;;;3.27;;
15404;SDS011;7801;48.124;11.590;2023-04-21T02:46:38;3.33;;;3.17;;
15404;SDS011;7801;48.124;11.590;2023-04-21T02:49:05;3.90;;;3.70;;
15404;SDS011;7801;48.124;11.590;2023-04-21T02:51:30;3.43;;;3.23;;
15404;SDS011;7801;48.124;11.590;2023-04-21T02:53:56;4.23;;;3.83;;
15404;SDS011;7801;48.124;11.590;2023-04-21T02:56:21;4.07;;;3.77;;
15404;SDS011;7801;48.124;11.590;2023-04-21T02:58:47;4.13;;;3.83;;
15404;SDS011;7801;48.124;11.590;2023-04-21T03:01:12;3.77;;;3.57;;
15404;SDS011;7801;48.124;11.590;2023-04-21T03:03:38;3.57;;;3.37;;
15404;SDS011;7801;48.124;11.590;2023-04-21T03:06:03;4.43;;;4.13;;
15404;SDS011;7801;48.124;11.590;2023-04-21T03:08:29;3.50;;;3.30;;
15404;SDS011;7801;48.124;11.590;2023-04-21T03:10:55;4.57;;;4.27;;
15404;SDS011;7801;48.124;11.590;2023-04-21T03:13:21;3.77;;;3.53;;
15404;SDS011;7801;48.124;11.590;2023-04-21T03:15:49;4.10;;;3.90;;
15404;SDS011;7801;48.124;11.590;2023-04-21T03:18:15;4.73;;;3.37;;
15404;SDS011;7801;48.124;11.590;2023-04-21T03:20:41;4.37;;;4.07;;
15404;SDS011;7801;48.124;11.590;2023-04-21T03:23:06;4.53;;;4.30;;
15404;SDS011;7801;48.124;11.590;2023-04-21T03:25:32;3.27;;;3.07;;
15404;SDS011;7801;48.124;11.590;2023-04-21T03:27:57;4.10;;;3.90;;
15404;SDS011;7801;48.124;11.590;2023-04-21T03:30:23;3.73;;;3.50;;
15404;SDS011;7801;48.124;11.590;2023-04-21T03:32:50;4.17;;;3.87;;
15404;SDS011;7801;48.124;11.590;2023-04-21T03:35:15;2.93;;;2.80;;
15404;SDS011;7801;48.124;11.590;2023-04-21T03:37:41;3.20;;;2.90;;
15404;SDS011;7801;48.124;11.590;2023-04-21T03:40:07;3.07;;;2.93;;
15404;SDS011;7801;48.124;11.590;2023-04-21T03:42:33;3.40;;;3.20;;
15404;SDS011;7801;48.124;11.590;2023-04-21T03:45:06;3.03;;;2.93;;
15404;SDS011;7801;48.124;11.590;2023-04-21T03:47:33;2.90;;;2.70;;
15404;SDS011;7801;48.124;11.590;2023-04-21T03:49:58;3.33;;;2.87;;
15404;SDS011;7801;48.124;11.590;2023-04-21T03:52:24;3.27;;;3.07;;
15404;SDS011;7801;48.124;11.590;2023-04-21T03:54:49;3.10;;;2.93;;
15404;SDS011;7801;48.124;11.590;2023-04-21T03:57:15;1.93;;;1.83;;
15404;SDS011;7801;48.124;11.590;2023-04-21T03:59:41;2.40;;;2.17;;
15404;SDS011;7801;48.124;11.590;2023-04-21T04:02:06;2.37;;;2.27;;
15404;SDS011;7801;48.124;11.590;2023-04-21T04:04:32;1.67;;;1.57;;
15404;SDS011;7801;48.124;11.590;2023-04-21T04:06:57;3.03;;;2.83;;
15404;SDS011;7801;48.124;11.590;2023-04-21T04:09:23;2.10;;;2.00;;
15404;SDS011;7801;48.124;11.590;2023-04-21T04:11:48;1.90;;;1.90;;
15404;SDS011;7801;48.124;11.590;2023-04-21T04:14:14;2.80;;;2.70;;
15404;SDS011;7801;48.124;11.590;2023-04-21T04:16:39;2.67;;;2.57;;
15404;SDS011;7801;48.124;11.590;2023-04-21T04:19:05;2.60;;;2.50;;
15404;SDS011;7801;48.124;11.590;2023-04-21T04:21:31;3.43;;;3.33;;
15404;SDS011;7801;48.124;11.590;2023-04-21T04:23:57;2.40;;;2.30;;
15404;SDS011;7801;48.124;11.590;2023-04-21T04:26:23;2.43;;;2.33;;
15404;SDS011;7801;48.124;11.590;2023-04-21T04:28:49;2.27;;;2.17;;
15404;SDS011;7801;48.124;11.590;2023-04-21T04:31:16;2.27;;;2.17;;
15404;SDS011;7801;48.124;11.590;2023-04-21T04:33:42;2.40;;;2.30;;
15404;SDS011;7801;48.124;11.590;2023-04-21T04:36:07;3.03;;;2.47;;
15404;SDS011;7801;48.124;11.590;2023-04-21T04:38:34;2.27;;;2.17;;
15404;SDS011;7801;48.124;11.590;2023-04-21T04:41:01;1.90;;;1.80;;
15404;SDS011;7801;48.124;11.590;2023-04-21T04:43:27;2.13;;;2.03;;
15404;SDS011;7801;48.124;11.590;2023-04-21T04:45:53;2.50;;;2.33;;
15404;SDS011;7801;48.124;11.590;2023-04-21T04:48:18;3.10;;;3.00;;
15404;SDS011;7801;48.124;11.590;2023-04-21T04:50:44;2.57;;;2.47;;
15404;SDS011;7801;48.124;11.590;2023-04-21T04:53:09;2.33;;;2.23;;
15404;SDS011;7801;48.124;11.590;2023-04-21T04:55:35;2.50;;;2.40;;
15404;SDS011;7801;48.124;11.590;2023-04-21T04:58:00;2.97;;;2.77;;
15404;SDS011;7801;48.124;11.590;2023-04-21T05:00:26;3.83;;;3.53;;
15404;SDS011;7801;48.124;11.590;2023-04-21T05:02:52;3.07;;;2.87;;
15404;SDS011;7801;48.124;11.590;2023-04-21T05:05:18;4.37;;;4.10;;
15404;SDS011;7801;48.124;11.590;2023-04-21T05:07:45;3.30;;;3.10;;
15404;SDS011;7801;48.124;11.590;2023-04-21T05:10:11;3.10;;;2.80;;
15404;SDS011;7801;48.124;11.590;2023-04-21T05:12:36;2.77;;;2.67;;
15404;SDS011;7801;48.124;11.590;2023-04-21T05:15:02;2.27;;;2.17;;
15404;SDS011;7801;48.124;11.590;2023-04-21T05:17:27;2.80;;;2.67;;
15404;SDS011;7801;48.124;11.590;2023-04-21T05:19:55;3.30;;;3.10;;
15404;SDS011;7801;48.124;11.590;2023-04-21T05:22:20;2.07;;;1.97;;
15404;SDS011;7801;48.124;11.590;2023-04-21T05:24:45;3.20;;;3.00;;
15404;SDS011;7801;48.124;11.590;2023-04-21T05:27:11;2.67;;;2.50;;
15404;SDS011;7801;48.124;11.590;2023-04-21T05:29:36;2.87;;;2.67;;
15404;SDS011;7801;48.124;11.590;2023-04-21T05:32:02;2.50;;;2.40;;
15404;SDS011;7801;48.124;11.590;2023-04-21T05:34:27;5.73;;;3.60;;
15404;SDS011;7801;48.124;11.590;2023-04-21T05:36:53;3.87;;;3.67;;
15404;SDS011;7801;48.124;11.590;2023-04-21T05:39:18;3.60;;;3.40;;
15404;SDS011;7801;48.124;11.590;2023-04-21T05:41:43;8.57;;;4.30;;
15404;SDS011;7801;48.124;11.590;2023-04-21T05:44:09;3.90;;;3.60;;
15404;SDS011;7801;48.124;11.590;2023-04-21T05:46:34;3.70;;;3.50;;
15404;SDS011;7801;48.124;11.590;2023-04-21T05:49:00;3.03;;;2.87;;
15404;SDS011;7801;48.124;11.590;2023-04-21T05:51:31;2.47;;;2.37;;
15404;SDS011;7801;48.124;11.590;2023-04-21T05:53:59;3.37;;;3.13;;
15404;SDS011;7801;48.124;11.590;2023-04-21T05:56:25;2.87;;;2.67;;
15404;SDS011;7801;48.124;11.590;2023-04-21T05:58:50;5.27;;;4.60;;
15404;SDS011;7801;48.124;11.590;2023-04-21T06:01:16;3.23;;;3.10;;
15404;SDS011;7801;48.124;11.590;2023-04-21T06:03:42;2.57;;;2.47;;
15404;SDS011;7801;48.124;11.590;2023-04-21T06:06:09;3.63;;;3.43;;
15404;SDS011;7801;48.124;11.590;2023-04-21T06:08:43;4.57;;;4.17;;
15404;SDS011;7801;48.124;11.590;2023-04-21T06:11:08;4.30;;;4.00;;
15404;SDS011;7801;48.124;11.590;2023-04-21T06:13:34;2.73;;;2.63;;
15404;SDS011;7801;48.124;11.590;2023-04-21T06:16:00;23.20;;;2.40;;
15404;SDS011;7801;48.124;11.590;2023-04-21T06:18:28;10.27;;;1.93;;
15404;SDS011;7801;48.124;11.590;2023-04-21T06:20:58;10.13;;;2.10;;
15404;SDS011;7801;48.124;11.590;2023-04-21T06:23:24;1.90;;;1.80;;
15404;SDS011;7801;48.124;11.590;2023-04-21T06:26:00;3.77;;;2.70;;
15404;SDS011;7801;48.124;11.590;2023-04-21T06:28:47;2.33;;;2.10;;
15404;SDS011;7801;48.124;11.590;2023-04-21T06:31:12;2.03;;;1.93;;
15404;SDS011;7801;48.124;11.590;2023-04-21T06:33:39;2.37;;;1.97;;
15404;SDS011;7801;48.124;11.590;2023-04-21T06:36:06;3.57;;;3.37;;
15404;SDS011;7801;48.124;11.590;2023-04-21T06:38:34;3.50;;;3.30;;
15404;SDS011;7801;48.124;11.590;2023-04-21T06:40:59;3.50;;;3.40;;
15404;SDS011;7801;48.124;11.590;2023-04-21T06:43:25;2.83;;;2.63;;
15404;SDS011;7801;48.124;11.590;2023-04-21T06:45:50;7.50;;;3.90;;
15404;SDS011;7801;48.124;11.590;2023-04-21T06:48:16;3.93;;;3.63;;
15404;SDS011;7801;48.124;11.590;2023-04-21T06:50:42;2.20;;;2.10;;
15404;SDS011;7801;48.124;11.590;2023-04-21T06:53:10;2.57;;;2.47;;
15404;SDS011;7801;48.124;11.590;2023-04-21T06:55:36;3.20;;;2.90;;
15404;SDS011;7801;48.124;11.590;2023-04-21T06:58:02;3.00;;;2.70;;
15404;SDS011;7801;48.124;11.590;2023-04-21T07:00:29;3.47;;;3.17;;
15404;SDS011;7801;48.124;11.590;2023-04-21T07:02:57;4.57;;;4.27;;
15404;SDS011;7801;48.124;11.590;2023-04-21T07:05:23;4.13;;;3.83;;
15404;SDS011;7801;48.124;11.590;2023-04-21T07:07:48;3.53;;;3.33;;
15404;SDS011;7801;48.124;11.590;2023-04-21T07:10:18;3.17;;;2.97;;
15404;SDS011;7801;48.124;11.590;2023-04-21T07:12:45;2.93;;;2.83;;
15404;SDS011;7801;48.124;11.590;2023-04-21T07:15:12;3.40;;;3.17;;
15404;SDS011;7801;48.124;11.590;2023-04-21T07:17:39;5.50;;;3.37;;
15404;SDS011;7801;48.124;11.590;2023-04-21T07:20:06;3.33;;;2.63;;
15404;SDS011;7801;48.124;11.590;2023-04-21T07:22:33;3.27;;;3.07;;
15404;SDS011;7801;48.124;11.590;2023-04-21T07:25:04;2.93;;;2.77;;
15404;SDS011;7801;48.124;11.590;2023-04-21T07:27:33;2.73;;;2.63;;
15404;SDS011;7801;48.124;11.590;2023-04-21T07:30:01;4.23;;;3.37;;
15404;SDS011;7801;48.124;11.590;2023-04-21T07:32:27;4.27;;;2.73;;
15404;SDS011;7801;48.124;11.590;2023-04-21T07:34:53;11.63;;;3.00;;
15404;SDS011;7801;48.124;11.590;2023-04-21T07:37:20;3.50;;;3.30;;
15404;SDS011;7801;48.124;11.590;2023-04-21T07:39:47;3.17;;;2.97;;
15404;SDS011;7801;48.124;11.590;2023-04-21T07:42:12;2.50;;;2.40;;
15404;SDS011;7801;48.124;11.590;2023-04-21T07:44:41;2.77;;;2.67;;
15404;SDS011;7801;48.124;11.590;2023-04-21T07:47:06;4.20;;;3.83;;
15404;SDS011;7801;48.124;11.590;2023-04-21T07:49:33;2.07;;;1.97;;
15404;SDS011;7801;48.124;11.590;2023-04-21T07:52:00;2.57;;;2.47;;
15404;SDS011;7801;48.124;11.590;2023-04-21T07:54:28;3.90;;;3.13;;
15404;SDS011;7801;48.124;11.590;2023-04-21T07:56:54;3.17;;;2.73;;
15404;SDS011;7801;48.124;11.590;2023-04-21T07:59:20;3.17;;;2.97;;
15404;SDS011;7801;48.124;11.590;2023-04-21T08:01:45;2.90;;;2.80;;
15404;SDS011;7801;48.124;11.590;2023-04-21T08:04:11;3.83;;;2.13;;
15404;SDS011;7801;48.124;11.590;2023-04-21T08:06:37;2.07;;;1.97;;
15404;SDS011;7801;48.124;11.590;2023-04-21T08:09:03;3.37;;;2.77;;
15404;SDS011;7801;48.124;11.590;2023-04-21T08:11:29;2.17;;;1.97;;
15404;SDS011;7801;48.124;11.590;2023-04-21T08:13:55;1.70;;;1.63;;
15404;SDS011;7801;48.124;11.590;2023-04-21T08:16:23;2.80;;;2.70;;
15404;SDS011;7801;48.124;11.590;2023-04-21T08:18:53;1.60;;;1.53;;
15404;SDS011;7801;48.124;11.590;2023-04-21T08:21:20;1.63;;;1.53;;
15404;SDS011;7801;48.124;11.590;2023-04-21T08:23:49;2.90;;;2.67;;
15404;SDS011;7801;48.124;11.590;2023-04-21T08:26:15;3.13;;;2.47;;
15404;SDS011;7801;48.124;11.590;2023-04-21T08:28:45;3.13;;;2.93;;
15404;SDS011;7801;48.124;11.590;2023-04-21T08:31:14;3.17;;;2.97;;
15404;SDS011;7801;48.124;11.590;2023-04-21T08:33:46;2.13;;;2.10;;
15404;SDS011;7801;48.124;11.590;2023-04-21T08:36:12;2.67;;;2.47;;
15404;SDS011;7801;48.124;11.590;2023-04-21T08:38:41;2.67;;;2.47;;
15404;SDS011;7801;48.124;11.590;2023-04-21T08:41:08;1.90;;;1.87;;
15404;SDS011;7801;48.124;11.590;2023-04-21T08:43:34;2.37;;;2.27;;
15404;SDS011;7801;48.124;11.590;2023-04-21T08:49:24;1.90;;;1.80;;
15404;SDS011;7801;48.124;11.590;2023-04-21T08:51:58;2.07;;;2.07;;
15404;SDS011;7801;48.124;11.590;2023-04-21T08:54:26;1.67;;;1.67;;
15404;SDS011;7801;48.124;11.590;2023-04-21T08:56:56;2.10;;;2.00;;
15404;SDS011;7801;48.124;11.590;2023-04-21T08:59:23;1.73;;;1.63;;
15404;SDS011;7801;48.124;11.590;2023-04-21T09:04:48;1.60;;;1.60;;
15404;SDS011;7801;48.124;11.590;2023-04-21T09:07:31;1.97;;;1.87;;
15404;SDS011;7801;48.124;11.590;2023-04-21T09:10:12;2.03;;;1.93;;
15404;SDS011;7801;48.124;11.590;2023-04-21T09:12:39;3.90;;;1.53;;
15404;SDS011;7801;48.124;11.590;2023-04-21T09:15:05;1.73;;;1.63;;
15404;SDS011;7801;48.124;11.590;2023-04-21T09:17:31;1.97;;;1.87;;
15404;SDS011;7801;48.124;11.590;2023-04-21T09:20:20;6.13;;;3.33;;
15404;SDS011;7801;48.124;11.590;2023-04-21T09:23:07;2.20;;;2.00;;
15404;SDS011;7801;48.124;11.590;2023-04-21T09:25:39;2.03;;;1.93;;
15404;SDS011;7801;48.124;11.590;2023-04-21T09:28:11;2.50;;;2.40;;
15404;SDS011;7801;48.124;11.590;2023-04-21T09:30:46;2.57;;;2.37;;
15404;SDS011;7801;48.124;11.590;2023-04-21T09:33:15;1.63;;;1.53;;
15404;SDS011;7801;48.124;11.590;2023-04-21T09:35:43;1.83;;;1.80;;
15404;SDS011;7801;48.124;11.590;2023-04-21T09:38:11;1.53;;;1.37;;
15404;SDS011;7801;48.124;11.590;2023-04-21T09:40:38;2.57;;;2.37;;
15404;SDS011;7801;48.124;11.590;2023-04-21T09:43:05;2.27;;;2.17;;
15404;SDS011;7801;48.124;11.590;2023-04-21T09:45:31;1.73;;;1.63;;
15404;SDS011;7801;48.124;11.590;2023-04-21T09:47:58;4.23;;;2.33;;
15404;SDS011;7801;48.124;11.590;2023-04-21T09:50:45;2.23;;;2.13;;
15404;SDS011;7801;48.124;11.590;2023-04-21T09:53:13;1.47;;;1.37;;
15404;SDS011;7801;48.124;11.590;2023-04-21T09:55:41;2.40;;;2.23;;
15404;SDS011;7801;48.124;11.590;2023-04-21T09:58:11;2.90;;;2.73;;
15404;SDS011;7801;48.124;11.590;2023-04-21T10:00:44;2.33;;;2.23;;
15404;SDS011;7801;48.124;11.590;2023-04-21T10:03:12;2.03;;;1.93;;
15404;SDS011;7801;48.124;11.590;2023-04-21T10:05:43;4.03;;;3.37;;
15404;SDS011;7801;48.124;11.590;2023-04-21T10:08:12;2.90;;;2.70;;
15404;SDS011;7801;48.124;11.590;2023-04-21T10:10:39;2.87;;;2.47;;
15404;SDS011;7801;48.124;11.590;2023-04-21T10:13:12;1.83;;;1.80;;
15404;SDS011;7801;48.124;11.590;2023-04-21T10:15:45;2.60;;;2.50;;
15404;SDS011;7801;48.124;11.590;2023-04-21T10:20:57;1.77;;;1.70;;
15404;SDS011;7801;48.124;11.590;2023-04-21T10:26:16;2.07;;;1.97;;
15404;SDS011;7801;48.124;11.590;2023-04-21T10:28:53;2.47;;;2.37;;
15404;SDS011;7801;48.124;11.590;2023-04-21T10:34:12;3.67;;;3.37;;
15404;SDS011;7801;48.124;11.590;2023-04-21T10:39:10;3.40;;;3.27;;
15404;SDS011;7801;48.124;11.590;2023-04-21T10:41:40;3.53;;;3.33;;
15404;SDS011;7801;48.124;11.590;2023-04-21T10:44:20;3.97;;;3.77;;
15404;SDS011;7801;48.124;11.590;2023-04-21T10:46:47;15.40;;;4.70;;
15404;SDS011;7801;48.124;11.590;2023-04-21T10:49:23;3.63;;;3.43;;
15404;SDS011;7801;48.124;11.590;2023-04-21T10:57:32;4.43;;;4.13;;
15404;SDS011;7801;48.124;11.590;2023-04-21T10:59:59;4.40;;;4.10;;
15404;SDS011;7801;48.124;11.590;2023-04-21T11:02:27;3.53;;;3.33;;
15404;SDS011;7801;48.124;11.590;2023-04-21T11:04:53;3.17;;;3.00;;
15404;SDS011;7801;48.124;11.590;2023-04-21T11:07:24;3.57;;;3.43;;
15404;SDS011;7801;48.124;11.590;2023-04-21T11:10:09;4.00;;;3.70;;
15404;SDS011;7801;48.124;11.590;2023-04-21T11:12:39;2.63;;;2.50;;
15404;SDS011;7801;48.124;11.590;2023-04-21T11:15:07;5.73;;;5.33;;
15404;SDS011;7801;48.124;11.590;2023-04-21T11:17:44;3.43;;;3.33;;
15404;SDS011;7801;48.124;11.590;2023-04-21T11:20:12;3.77;;;3.40;;
15404;SDS011;7801;48.124;11.590;2023-04-21T11:22:41;3.17;;;2.83;;
15404;SDS011;7801;48.124;11.590;2023-04-21T11:25:15;3.43;;;3.20;;
15404;SDS011;7801;48.124;11.590;2023-04-21T11:27:54;5.30;;;4.27;;
15404;SDS011;7801;48.124;11.590;2023-04-21T11:30:33;3.77;;;3.57;;
15404;SDS011;7801;48.124;11.590;2023-04-21T11:33:01;3.20;;;3.00;;
15404;SDS011;7801;48.124;11.590;2023-04-21T11:35:27;2.40;;;2.30;;
15404;SDS011;7801;48.124;11.590;2023-04-21T11:37:55;2.60;;;2.50;;
15404;SDS011;7801;48.124;11.590;2023-04-21T11:40:23;2.30;;;2.20;;
15404;SDS011;7801;48.124;11.590;2023-04-21T11:42:49;3.40;;;3.20;;
15404;SDS011;7801;48.124;11.590;2023-04-21T11:45:18;3.73;;;3.43;;
15404;SDS011;7801;48.124;11.590;2023-04-21T11:47:44;6.67;;;1.90;;
15404;SDS011;7801;48.124;11.590;2023-04-21T11:50:10;2.73;;;2.43;;
15404;SDS011;7801;48.124;11.590;2023-04-21T11:52:36;3.30;;;2.97;;
15404;SDS011;7801;48.124;11.590;2023-04-21T11:55:11;1.83;;;1.73;;
15404;SDS011;7801;48.124;11.590;2023-04-21T11:57:44;2.43;;;2.20;;
15404;SDS011;7801;48.124;11.590;2023-04-21T12:00:10;4.33;;;3.07;;
15404;SDS011;7801;48.124;11.590;2023-04-21T12:02:39;2.10;;;2.00;;
15404;SDS011;7801;48.124;11.590;2023-04-21T12:07:44;1.37;;;1.37;;
15404;SDS011;7801;48.124;11.590;2023-04-21T12:10:14;1.43;;;1.40;;
15404;SDS011;7801;48.124;11.590;2023-04-21T12:12:43;1.33;;;1.33;;
15404;SDS011;7801;48.124;11.590;2023-04-21T12:15:11;1.33;;;1.30;;
15404;SDS011;7801;48.124;11.590;2023-04-21T12:17:52;1.40;;;1.40;;
15404;SDS011;7801;48.124;11.590;2023-04-21T12:20:22;3.17;;;2.10;;
15404;SDS011;7801;48.124;11.590;2023-04-21T12:22:52;2.33;;;2.23;;
15404;SDS011;7801;48.124;11.590;2023-04-21T12:25:22;1.67;;;1.63;;
15404;SDS011;7801;48.124;11.590;2023-04-21T12:27:49;1.47;;;1.40;;
15404;SDS011;7801;48.124;11.590;2023-04-21T12:30:15;2.10;;;2.00;;
15404;SDS011;7801;48.124;11.590;2023-04-21T12:32:42;1.17;;;1.17;;
15404;SDS011;7801;48.124;11.590;2023-04-21T12:35:12;0.80;;;0.80;;
15404;SDS011;7801;48.124;11.590;2023-04-21T12:37:38;1.00;;;1.00;;
15404;SDS011;7801;48.124;11.590;2023-04-21T12:40:06;2.60;;;1.63;;
15404;SDS011;7801;48.124;11.590;2023-04-21T12:42:34;0.83;;;0.83;;
15404;SDS011;7801;48.124;11.590;2023-04-21T12:45:01;2.07;;;1.53;;
15404;SDS011;7801;48.124;11.590;2023-04-21T12:47:26;0.90;;;0.90;;
15404;SDS011;7801;48.124;11.590;2023-04-21T12:49:52;1.23;;;1.13;;
15404;SDS011;7801;48.124;11.590;2023-04-21T12:52:19;1.90;;;1.23;;
15404;SDS011;7801;48.124;11.590;2023-04-21T12:54:44;0.90;;;0.90;;
15404;SDS011;7801;48.124;11.590;2023-04-21T12:57:09;0.50;;;0.50;;
15404;SDS011;7801;48.124;11.590;2023-04-21T12:59:35;1.07;;;1.00;;
15404;SDS011;7801;48.124;11.590;2023-04-21T13:02:01;1.00;;;1.00;;
15404;SDS011;7801;48.124;11.590;2023-04-21T13:04:28;0.73;;;0.50;;
15404;SDS011;7801;48.124;11.590;2023-04-21T13:06:54;0.60;;;0.60;;
15404;SDS011;7801;48.124;11.590;2023-04-21T13:09:20;0.53;;;0.53;;
15404;SDS011;7801;48.124;11.590;2023-04-21T13:11:47;1.17;;;1.07;;
15404;SDS011;7801;48.124;11.590;2023-04-21T13:14:12;0.53;;;0.53;;
15404;SDS011;7801;48.124;11.590;2023-04-21T13:16:42;0.30;;;0.30;;
15404;SDS011;7801;48.124;11.590;2023-04-21T13:19:07;1.33;;;0.90;;
15404;SDS011;7801;48.124;11.590;2023-04-21T13:21:36;0.90;;;0.90;;
15404;SDS011;7801;48.124;11.590;2023-04-21T13:24:01;1.10;;;1.00;;
15404;SDS011;7801;48.124;11.590;2023-04-21T13:26:29;0.70;;;0.70;;
15404;SDS011;7801;48.124;11.590;2023-04-21T13:28:57;0.60;;;0.60;;
15404;SDS011;7801;48.124;11.590;2023-04-21T13:31:22;1.03;;;1.03;;
15404;SDS011;7801;48.124;11.590;2023-04-21T13:33:51;1.13;;;1.13;;
15404;SDS011;7801;48.124;11.590;2023-04-21T13:36:17;0.30;;;0.30;;
15404;SDS011;7801;48.124;11.590;2023-04-21T13:38:44;3.40;;;1.20;;
15404;SDS011;7801;48.124;11.590;2023-04-21T13:41:10;0.63;;;0.63;;
15404;SDS011;7801;48.124;11.590;2023-04-21T13:43:37;0.57;;;0.57;;
15404;SDS011;7801;48.124;11.590;2023-04-21T13:46:05;0.63;;;0.63;;
15404;SDS011;7801;48.124;11.590;2023-04-21T13:48:38;0.60;;;0.60;;
15404;SDS011;7801;48.124;11.590;2023-04-21T13:51:05;0.40;;;0.40;;
15404;SDS011;7801;48.124;11.590;2023-04-21T13:53:33;0.50;;;0.50;;
15404;SDS011;7801;48.124;11.590;2023-04-21T13:56:00;1.13;;;0.93;;
15404;SDS011;7801;48.124;11.590;2023-04-21T13:58:28;0.60;;;0.60;;
15404;SDS011;7801;48.124;11.590;2023-04-21T14:00:55;0.60;;;0.60;;
15404;SDS011;7801;48.124;11.590;2023-04-21T14:03:22;0.63;;;0.53;;
15404;SDS011;7801;48.124;11.590;2023-04-21T14:05:49;0.87;;;0.87;;
15404;SDS011;7801;48.124;11.590;2023-04-21T14:08:15;0.80;;;0.80;;
15404;SDS011;7801;48.124;11.590;2023-04-21T14:10:42;0.73;;;0.73;;
15404;SDS011;7801;48.124;11.590;2023-04-21T14:13:07;0.40;;;0.40;;
15404;SDS011;7801;48.124;11.590;2023-04-21T14:15:35;0.80;;;0.80;;
15404;SDS011;7801;48.124;11.590;2023-04-21T14:18:00;0.60;;;0.60;;
15404;SDS011;7801;48.124;11.590;2023-04-21T14:20:27;0.73;;;0.73;;
15404;SDS011;7801;48.124;11.590;2023-04-21T14:22:53;0.50;;;0.50;;
15404;SDS011;7801;48.124;11.590;2023-04-21T14:25:19;0.63;;;0.63;;
15404;SDS011;7801;48.124;11.590;2023-04-21T14:27:46;0.43;;;0.43;;
15404;SDS011;7801;48.124;11.590;2023-04-21T14:30:12;0.77;;;0.77;;
15404;SDS011;7801;48.124;11.590;2023-04-21T14:32:41;0.50;;;0.50;;
15404;SDS011;7801;48.124;11.590;2023-04-21T14:35:13;1.70;;;1.00;;
15404;SDS011;7801;48.124;11.590;2023-04-21T14:37:39;0.63;;;0.63;;
15404;SDS011;7801;48.124;11.590;2023-04-21T14:40:06;0.30;;;0.30;;
15404;SDS011;7801;48.124;11.590;2023-04-21T14:42:36;0.50;;;0.50;;
15404;SDS011;7801;48.124;11.590;2023-04-21T14:45:03;0.37;;;0.37;;
15404;SDS011;7801;48.124;11.590;2023-04-21T14:47:33;0.10;;;0.10;;
15404;SDS011;7801;48.124;11.590;2023-04-21T14:50:01;0.50;;;0.50;;
15404;SDS011;7801;48.124;11.590;2023-04-21T14:52:29;1.40;;;0.87;;
15404;SDS011;7801;48.124;11.590;2023-04-21T14:54:57;0.50;;;0.50;;
15404;SDS011;7801;48.124;11.590;2023-04-21T14:57:25;0.53;;;0.53;;
15404;SDS011;7801;48.124;11.590;2023-04-21T14:59:52;0.53;;;0.53;;
15404;SDS011;7801;48.124;11.590;2023-04-21T15:02:20;1.13;;;1.13;;
15404;SDS011;7801;48.124;11.590;2023-04-21T15:04:48;0.50;;;0.50;;
15404;SDS011;7801;48.124;11.590;2023-04-21T15:07:16;0.33;;;0.33;;
15404;SDS011;7801;48.124;11.590;2023-04-21T15:09:41;0.20;;;0.20;;
15404;SDS011;7801;48.124;11.590;2023-04-21T15:12:11;1.10;;;0.80;;
15404;SDS011;7801;48.124;11.590;2023-04-21T15:14:38;4.47;;;1.07;;
15404;SDS011;7801;48.124;11.590;2023-04-21T15:17:04;0.93;;;0.93;;
15404;SDS011;7801;48.124;11.590;2023-04-21T15:19:31;1.17;;;0.73;;